Terminal Aerodrome Forecast
Issued by NWS Cleveland, OH

Home | Current Version | Previous Version | Graphics & Text | Print | Product List | Glossary On
Versions: 1 2 3 4 5 6 7 8 9 10 11 12 13 14 15 16 17 18 19 20
846
FTUS41 KCLE 100938 AAA
TAFYNG
TAF AMD
KYNG 100938Z 1010/1106 25012KT 6SM -SHSN OVC015
      TEMPO 1011/1015 4SM -SHSN
     FM101500 25012KT 3SM -SHSN OVC018
     FM101900 27012KT 1 1/2SM -SN OVC015
     FM110300 28012KT 3SM -SHSN OVC025=

USA.gov is the U.S. government's official web portal to all federal, state and local government web resources and services.